Time;durP1;ratioP1;P1;durP2;ratioP2;P2;SDS_P1;SDS_P2;PMS_P1;PMS_P2;Temp;Humidity;BMP_temperature;BMP_pressure;BME280_temperature;BME280_humidity;BME280_pressure;Samples;Min_cycle;Max_cycle;Signal;HPM_P1;HPM_P2
2021/12/18 00:02:10;;;;;;;21.40;11.73;;;6.00;99.90;;;6.74;100.00;-19956.41;5073222;28;20383;-63
2021/12/18 00:04:39;;;;;;;19.03;11.60;;;6.00;99.90;;;6.76;100.00;-19957.09;5073168;28;20660;-65
2021/12/18 00:07:08;;;;;;;18.70;11.53;;;6.00;99.90;;;6.68;100.00;-19954.19;5093081;28;20570;-62
2021/12/18 00:09:38;;;;;;;21.57;11.80;;;6.00;99.90;;;6.77;100.00;-19957.25;5094253;28;20230;-63
2021/12/18 00:12:09;;;;;;;18.43;11.70;;;6.00;99.90;;;6.65;100.00;-19953.31;5094127;28;20220;-62
2021/12/18 00:14:37;;;;;;;19.47;11.30;;;6.00;99.90;;;6.63;100.00;-19952.47;5093826;28;20231;-62
2021/12/18 00:17:05;;;;;;;20.37;12.47;;;6.00;99.90;;;6.69;100.00;-19954.69;5088663;28;20203;-63
2021/12/18 00:19:34;;;;;;;19.33;12.13;;;5.90;99.90;;;6.64;100.00;-19952.97;5073476;28;20225;-63
2021/12/18 00:22:02;;;;;;;21.63;12.57;;;5.90;99.90;;;6.64;100.00;-19952.81;5073439;28;20627;-62
2021/12/18 00:24:31;;;;;;;22.93;13.80;;;6.00;99.90;;;6.61;100.00;-19951.97;5073859;28;20197;-63
2021/12/18 00:27:01;;;;;;;24.37;13.67;;;5.90;99.90;;;6.68;100.00;-19954.34;5073743;28;20350;-64
2021/12/18 00:29:29;;;;;;;21.83;13.13;;;5.90;99.90;;;6.63;100.00;-19952.63;5073418;28;20199;-63
2021/12/18 00:31:57;;;;;;;21.53;12.70;;;5.90;99.90;;;6.62;100.00;-19952.31;5072576;28;20300;-61
2021/12/18 00:34:25;;;;;;;22.80;13.17;;;6.00;99.90;;;6.65;100.00;-19953.16;5073648;28;20197;-64
2021/12/18 00:36:53;;;;;;;24.30;13.93;;;6.00;99.90;;;6.74;100.00;-19956.22;5073266;28;20304;-62
2021/12/18 00:39:21;;;;;;;23.57;13.27;;;5.90;99.90;;;6.64;100.00;-19952.81;5072961;28;20259;-62
2021/12/18 00:42:01;;;;;;;24.40;14.07;;;6.00;99.90;;;6.67;100.00;-19954.00;5073243;28;20200;-62
2021/12/18 00:44:30;;;;;;;20.53;12.73;;;5.90;99.90;;;6.62;100.00;-19952.13;5072889;28;20728;-62
2021/12/18 00:46:58;;;;;;;21.73;13.30;;;5.90;99.90;;;6.52;100.00;-19948.88;5072849;28;20288;-64
2021/12/18 00:49:26;;;;;;;20.67;12.30;;;5.90;99.90;;;6.52;100.00;-19948.72;5073277;28;20203;-62
2021/12/18 00:51:54;;;;;;;20.47;12.50;;;5.90;99.90;;;6.63;100.00;-19952.47;5072921;28;20205;-63
2021/12/18 00:54:22;;;;;;;22.17;13.53;;;5.90;99.90;;;6.62;100.00;-19952.31;5073068;28;20200;-62
2021/12/18 00:56:50;;;;;;;21.47;12.40;;;5.80;99.90;;;6.62;100.00;-19952.13;5072722;28;20224;-63
2021/12/18 00:59:18;;;;;;;21.90;12.40;;;5.80;99.90;;;6.59;100.00;-19951.28;5072443;28;20259;-62
2021/12/18 01:01:48;;;;;;;21.63;12.50;;;5.80;99.90;;;6.63;100.00;-19952.63;5072531;28;20251;-62
2021/12/18 01:04:17;;;;;;;24.43;12.90;;;5.90;99.90;;;6.53;100.00;-19949.22;5072512;28;20652;-62
2021/12/18 01:06:45;;;;;;;20.53;12.07;;;5.90;99.90;;;6.65;100.00;-19953.16;5088927;28;20201;-64
2021/12/18 01:09:15;;;;;;;23.27;13.50;;;5.90;99.90;;;6.61;100.00;-19951.78;5093152;28;20264;-64
2021/12/18 01:11:45;;;;;;;20.37;13.17;;;5.90;99.90;;;6.69;100.00;-19954.69;5092778;28;20298;-63
2021/12/18 01:14:35;;;;;;;22.47;12.47;;;5.90;99.90;;;6.55;100.00;-19949.72;5080340;28;20630;-64
2021/12/18 01:22:49;;;;;;;23.73;12.93;;;5.90;99.90;;;6.70;100.00;-19955.03;5072253;28;20647;-63
2021/12/18 01:25:21;;;;;;;23.37;13.07;;;5.90;99.90;;;6.61;100.00;-19951.78;5072234;28;20612;-62
2021/12/18 01:27:49;;;;;;;22.73;13.03;;;5.90;99.90;;;6.55;100.00;-19949.72;5071951;28;20706;-63
2021/12/18 01:30:19;;;;;;;25.77;14.27;;;5.80;99.90;;;6.57;100.00;-19950.41;5072425;28;20291;-63
2021/12/18 01:32:49;;;;;;;24.67;13.90;;;5.80;99.90;;;6.58;100.00;-19950.75;5071963;28;20236;-64
2021/12/18 01:35:18;;;;;;;22.93;13.07;;;5.80;99.90;;;6.60;100.00;-19951.63;5071966;28;20669;-63
2021/12/18 01:37:47;;;;;;;20.90;13.27;;;5.90;99.90;;;6.58;100.00;-19950.94;5072322;28;20258;-62
2021/12/18 01:40:16;;;;;;;23.23;12.80;;;5.90;99.90;;;6.62;100.00;-19952.31;5072088;28;20220;-62
2021/12/18 01:45:45;;;;;;;23.50;14.97;;;5.90;99.90;;;6.57;100.00;-19950.41;5071661;28;20295;-65
2021/12/18 01:51:17;;;;;;;23.00;14.97;;;5.80;99.90;;;6.57;100.00;-19950.41;5072148;28;20187;-63
2021/12/18 01:53:47;;;;;;;20.73;12.73;;;5.80;99.90;;;6.67;100.00;-19954.00;5072107;28;20284;-62
2021/12/18 01:56:16;;;;;;;20.00;12.27;;;5.80;99.90;;;6.63;100.00;-19952.47;5071852;28;20585;-64
2021/12/18 01:58:45;;;;;;;22.93;13.47;;;5.80;99.90;;;6.65;100.00;-19953.31;5071655;28;20220;-64
2021/12/18 02:01:15;;;;;;;20.47;12.53;;;5.80;99.90;;;6.51;100.00;-19948.38;5071614;28;20200;-64
2021/12/18 02:03:46;;;;;;;18.53;12.00;;;5.80;99.90;;;6.58;100.00;-19950.94;5071317;28;20292;-63
2021/12/18 02:06:15;;;;;;;21.93;13.17;;;5.80;99.90;;;6.54;100.00;-19949.56;5083547;28;20780;-62
2021/12/18 02:08:45;;;;;;;21.30;13.07;;;5.70;99.90;;;6.50;100.00;-19948.03;5092055;28;20291;-63
2021/12/18 02:11:26;;;;;;;21.30;12.40;;;5.70;99.90;;;6.49;100.00;-19947.69;5073802;28;20220;-63
2021/12/18 02:19:36;;;;;;;22.57;13.27;;;5.80;99.90;;;6.47;100.00;-19947.19;5071801;28;20205;-62
2021/12/18 02:22:05;;;;;;;21.53;13.10;;;5.80;99.90;;;6.48;100.00;-19947.34;5071829;28;20220;-63
2021/12/18 02:24:34;;;;;;;23.53;13.80;;;5.70;99.90;;;6.49;100.00;-19947.84;5071313;28;20698;-62
2021/12/18 02:27:02;;;;;;;27.10;13.80;;;5.70;99.90;;;6.42;100.00;-19945.47;5071716;28;20239;-63
2021/12/18 02:29:32;;;;;;;25.90;13.90;;;5.70;99.90;;;6.44;100.00;-19946.16;5072026;28;20203;-62
2021/12/18 02:32:00;;;;;;;24.07;14.67;;;5.70;99.90;;;6.51;100.00;-19948.53;5070974;28;20201;-62
2021/12/18 02:34:30;;;;;;;22.83;13.10;;;5.70;99.90;;;6.45;100.00;-19946.50;5071786;28;20240;-62
2021/12/18 02:37:04;;;;;;;20.93;13.23;;;5.70;99.90;;;6.47;100.00;-19947.00;5071856;28;20189;-62
2021/12/18 02:42:21;;;;;;;21.73;12.80;;;5.70;99.90;;;6.51;100.00;-19948.53;5030919;28;20291;-72
2021/12/18 02:44:50;;;;;;;23.20;12.70;;;5.70;99.90;;;6.47;100.00;-19947.00;5071623;28;20207;-62
2021/12/18 02:47:18;;;;;;;25.23;13.20;;;5.70;99.90;;;6.58;100.00;-19950.75;5071676;28;20322;-63
2021/12/18 02:49:50;;;;;;;25.83;15.30;;;5.70;99.90;;;6.49;100.00;-19947.84;5071414;28;20724;-62
2021/12/18 02:52:19;;;;;;;21.20;12.73;;;5.70;99.90;;;6.45;100.00;-19946.31;5078916;28;20539;-63
2021/12/18 02:54:49;;;;;;;22.03;12.60;;;5.70;99.90;;;6.54;100.00;-19949.41;5091972;28;20206;-62
2021/12/18 02:57:17;;;;;;;23.37;13.40;;;5.70;99.90;;;6.43;100.00;-19945.81;5092859;28;20246;-63
2021/12/18 02:59:50;;;;;;;25.47;14.40;;;5.80;99.90;;;6.62;100.00;-19952.13;5095110;28;20319;-63
2021/12/18 03:02:20;;;;;;;26.23;15.67;;;5.70;99.90;;;6.47;100.00;-19947.00;5095353;28;20715;-64
2021/12/18 03:04:57;;;;;;;24.93;15.03;;;5.70;99.90;;;6.51;100.00;-19948.38;5095398;28;20294;-62
2021/12/18 03:07:27;;;;;;;26.80;14.17;;;5.80;99.90;;;6.43;100.00;-19945.63;5095509;28;20636;-63
2021/12/18 03:24:09;;;;;;;23.20;12.63;;;5.70;99.90;;;6.66;100.00;-19953.50;5095272;28;20268;-62
2021/12/18 03:26:38;;;;;;;20.70;12.00;;;5.70;99.90;;;6.62;100.00;-19952.13;5095342;28;20271;-63
2021/12/18 03:29:06;;;;;;;22.70;12.57;;;5.70;99.90;;;6.58;100.00;-19950.75;5081833;28;20241;-63
2021/12/18 03:31:35;;;;;;;20.77;12.17;;;5.70;99.90;;;6.53;100.00;-19949.22;5074645;28;20225;-63
2021/12/18 03:34:03;;;;;;;19.90;12.13;;;5.70;99.90;;;6.66;100.00;-19953.66;5074262;28;20260;-62
2021/12/18 03:36:31;;;;;;;22.20;11.97;;;5.70;99.90;;;6.52;100.00;-19948.72;5075982;28;20291;-62
2021/12/18 03:39:00;;;;;;;21.67;12.13;;;5.70;99.90;;;6.49;100.00;-19947.84;5094479;28;20200;-64
2021/12/18 03:41:28;;;;;;;22.60;13.00;;;5.70;99.90;;;6.48;100.00;-19947.34;5094645;28;20216;-63
2021/12/18 03:43:57;;;;;;;21.27;12.67;;;5.70;99.90;;;6.60;100.00;-19951.44;5094772;28;20291;-63
2021/12/18 03:46:26;;;;;;;22.53;11.47;;;5.70;99.90;;;6.70;100.00;-19955.03;5094654;28;20211;-63
2021/12/18 03:48:54;;;;;;;23.37;12.03;;;5.70;99.90;;;6.60;100.00;-19951.63;5094610;28;20283;-63
2021/12/18 03:51:22;;;;;;;20.73;11.67;;;5.70;99.90;;;6.52;100.00;-19948.88;5094724;28;20207;-64
2021/12/18 03:53:50;;;;;;;22.53;12.37;;;5.70;99.90;;;6.59;100.00;-19951.28;5094335;28;20223;-63
2021/12/18 03:56:19;;;;;;;20.03;12.07;;;5.70;99.90;;;6.42;100.00;-19945.28;5094575;28;20200;-63
2021/12/18 03:58:48;;;;;;;23.20;12.30;;;5.70;99.90;;;6.43;100.00;-19945.81;5094390;28;20305;-62
2021/12/18 04:01:17;;;;;;;22.37;12.70;;;5.70;99.90;;;6.59;100.00;-19951.28;5094202;28;20321;-65
2021/12/18 04:03:45;;;;;;;22.83;11.70;;;5.70;99.90;;;6.41;100.00;-19945.13;5094270;28;20563;-66
2021/12/18 04:06:14;;;;;;;26.73;13.87;;;5.70;99.90;;;6.67;100.00;-19954.00;5093982;28;20603;-63
2021/12/18 04:08:42;;;;;;;24.00;13.07;;;5.70;99.90;;;6.58;100.00;-19950.75;5093627;28;20225;-63
2021/12/18 04:11:11;;;;;;;22.30;11.90;;;5.70;99.90;;;6.40;100.00;-19944.59;5094199;28;20232;-63
2021/12/18 04:13:43;;;;;;;19.47;12.13;;;5.70;99.90;;;6.55;100.00;-19949.72;5094390;28;20257;-64
2021/12/18 04:16:12;;;;;;;21.53;12.20;;;5.70;99.90;;;6.50;100.00;-19948.19;5093774;28;20204;-63
2021/12/18 04:18:42;;;;;;;21.57;12.40;;;5.70;99.90;;;6.53;100.00;-19949.22;5094074;28;20215;-63
2021/12/18 04:21:12;;;;;;;18.50;11.60;;;5.70;99.90;;;6.57;100.00;-19950.59;5094006;28;20310;-64
2021/12/18 04:23:41;;;;;;;20.90;12.17;;;5.70;99.90;;;6.48;100.00;-19947.50;5094135;28;20238;-63
2021/12/18 04:26:09;;;;;;;20.10;12.90;;;5.70;99.90;;;6.55;100.00;-19949.72;5073965;28;20211;-63
2021/12/18 04:28:37;;;;;;;21.43;12.53;;;5.70;99.90;;;6.51;100.00;-19948.53;5073549;28;20303;-64
2021/12/18 04:31:05;;;;;;;23.63;13.27;;;5.70;99.90;;;6.54;100.00;-19949.56;5073260;28;20843;-62
2021/12/18 04:33:34;;;;;;;20.50;11.57;;;5.70;99.90;;;6.64;100.00;-19952.97;5073329;28;20221;-62
2021/12/18 04:36:04;;;;;;;22.80;12.57;;;5.70;99.90;;;6.55;100.00;-19949.72;5073273;28;20663;-71
2021/12/18 04:38:32;;;;;;;19.90;11.67;;;5.70;99.90;;;6.48;100.00;-19947.34;5073865;28;20240;-70
2021/12/18 04:41:03;;;;;;;20.57;12.37;;;5.70;99.90;;;6.40;100.00;-19944.78;5073163;28;20312;-70
2021/12/18 04:43:34;;;;;;;22.03;11.73;;;5.60;99.90;;;6.60;100.00;-19951.63;5073363;28;20272;-70
2021/12/18 04:46:02;;;;;;;21.80;12.47;;;5.70;99.90;;;6.55;100.00;-19949.91;5073214;28;20284;-63
2021/12/18 04:48:33;;;;;;;18.97;12.20;;;5.70;99.90;;;6.59;100.00;-19951.28;5073190;28;20201;-63
2021/12/18 04:51:02;;;;;;;19.67;12.43;;;5.70;99.90;;;6.51;100.00;-19948.38;5073187;28;20287;-63
2021/12/18 04:53:30;;;;;;;20.93;12.47;;;5.70;99.90;;;6.56;100.00;-19950.09;5073375;28;20299;-63
2021/12/18 04:55:58;;;;;;;20.63;12.63;;;5.70;99.90;;;6.56;100.00;-19950.25;5072672;28;20204;-63
2021/12/18 04:58:26;;;;;;;19.93;12.50;;;5.70;99.90;;;6.57;100.00;-19950.59;5078723;28;20236;-65
2021/12/18 05:00:55;;;;;;;23.80;13.43;;;5.70;99.90;;;6.68;100.00;-19954.19;5093130;28;20310;-62
2021/12/18 05:03:23;;;;;;;21.27;13.17;;;5.80;99.90;;;6.69;100.00;-19954.53;5092958;28;20207;-62
2021/12/18 05:05:52;;;;;;;22.90;13.10;;;5.80;99.90;;;6.53;100.00;-19949.22;5093025;28;20196;-62
2021/12/18 05:08:21;;;;;;;22.50;13.27;;;5.80;99.90;;;6.58;100.00;-19950.75;5093287;28;20279;-63
2021/12/18 05:10:49;;;;;;;20.90;13.27;;;5.70;99.90;;;6.49;100.00;-19947.69;5092799;28;20284;-63
2021/12/18 05:13:17;;;;;;;24.33;14.03;;;5.70;99.90;;;6.71;100.00;-19955.22;5093280;28;20236;-63
2021/12/18 05:15:45;;;;;;;20.47;12.90;;;5.70;99.90;;;6.59;100.00;-19951.28;5092470;28;20735;-63
2021/12/18 05:18:13;;;;;;;25.03;14.07;;;5.70;99.90;;;6.56;100.00;-19950.25;5092753;28;20636;-63
2021/12/18 05:20:42;;;;;;;22.20;13.50;;;5.80;99.90;;;6.58;100.00;-19950.75;5087166;28;20207;-62
2021/12/18 05:23:10;;;;;;;23.03;13.23;;;5.80;99.90;;;6.62;100.00;-19952.31;5072925;28;20295;-64
2021/12/18 05:25:39;;;;;;;21.40;12.77;;;5.70;99.90;;;6.52;100.00;-19948.88;5072008;28;20297;-63
2021/12/18 05:28:07;;;;;;;23.80;14.70;;;5.70;99.90;;;6.45;100.00;-19946.50;5072768;28;20299;-63
2021/12/18 05:30:36;;;;;;;25.10;15.17;;;5.70;99.90;;;6.51;100.00;-19948.53;5072373;28;20243;-63
2021/12/18 05:33:04;;;;;;;23.07;13.90;;;5.70;99.90;;;6.44;100.00;-19946.16;5072095;28;20263;-63
2021/12/18 05:35:32;;;;;;;21.83;14.03;;;5.70;99.90;;;6.39;100.00;-19944.44;5072500;28;20201;-63
2021/12/18 05:38:05;;;;;;;25.30;14.40;;;5.60;99.90;;;6.55;100.00;-19949.91;5072215;28;20235;-64
2021/12/18 05:40:37;;;;;;;24.50;13.40;;;5.60;99.90;;;6.55;100.00;-19949.72;5072034;28;20280;-64
2021/12/18 05:43:08;;;;;;;24.20;13.77;;;5.70;99.90;;;6.55;100.00;-19949.91;5072403;28;20300;-63
2021/12/18 05:45:38;;;;;;;23.07;14.23;;;5.70;99.90;;;6.51;100.00;-19948.38;5071989;28;20550;-63
2021/12/18 05:48:07;;;;;;;21.67;13.37;;;5.70;99.90;;;6.53;100.00;-19949.22;5071996;28;20610;-63
2021/12/18 05:50:35;;;;;;;20.90;13.10;;;5.70;99.90;;;6.56;100.00;-19950.25;5072236;28;20283;-64
2021/12/18 05:53:03;;;;;;;20.90;12.40;;;5.80;99.90;;;6.52;100.00;-19948.72;5072325;28;20201;-62
2021/12/18 05:55:31;;;;;;;23.87;13.40;;;5.70;99.90;;;6.57;100.00;-19950.41;5084183;28;20599;-63
2021/12/18 05:57:59;;;;;;;23.10;14.53;;;5.70;99.90;;;6.39;100.00;-19944.44;5092334;28;20200;-64
2021/12/18 06:00:29;;;;;;;21.97;12.70;;;5.70;99.90;;;6.45;100.00;-19946.31;5092242;28;20210;-63
2021/12/18 06:02:57;;;;;;;22.83;13.90;;;5.70;99.90;;;6.45;100.00;-19946.31;5092073;28;20228;-64
2021/12/18 06:05:25;;;;;;;20.50;13.13;;;5.70;99.90;;;6.50;100.00;-19948.19;5092095;28;20214;-62
2021/12/18 06:07:56;;;;;;;20.40;12.30;;;5.70;99.90;;;6.44;100.00;-19946.16;5092145;28;20226;-64
2021/12/18 06:10:28;;;;;;;23.27;13.70;;;5.70;99.90;;;6.46;100.00;-19946.81;5091866;28;20699;-63
2021/12/18 06:12:59;;;;;;;23.00;13.83;;;5.70;99.90;;;6.54;100.00;-19949.41;5092373;28;20215;-63
2021/12/18 06:15:29;;;;;;;20.70;13.40;;;5.70;99.90;;;6.47;100.00;-19947.00;5092519;28;20207;-63
2021/12/18 06:17:58;;;;;;;21.60;13.23;;;5.70;99.90;;;6.59;100.00;-19951.28;5078382;28;20218;-62
2021/12/18 06:20:28;;;;;;;22.40;12.87;;;5.70;99.90;;;6.63;100.00;-19952.47;5072262;28;20254;-62
2021/12/18 06:22:58;;;;;;;24.23;13.47;;;5.80;99.90;;;6.56;100.00;-19950.25;5071693;28;20718;-62
2021/12/18 06:25:26;;;;;;;20.77;12.20;;;5.80;99.90;;;6.63;100.00;-19952.63;5071596;28;20848;-63
2021/12/18 06:27:54;;;;;;;20.93;12.70;;;5.80;99.90;;;6.72;100.00;-19955.72;5071233;28;20295;-62
2021/12/18 06:30:22;;;;;;;22.03;12.97;;;5.80;99.90;;;6.56;100.00;-19950.09;5072552;28;20699;-63
2021/12/18 06:32:51;;;;;;;24.27;13.63;;;5.80;99.90;;;6.51;100.00;-19948.38;5074935;28;20225;-63
2021/12/18 06:35:20;;;;;;;23.10;14.33;;;5.80;99.90;;;6.51;100.00;-19948.53;5075710;28;20604;-65
2021/12/18 06:37:48;;;;;;;22.00;13.57;;;5.80;99.90;;;6.44;100.00;-19946.16;5075352;28;20680;-62
2021/12/18 06:40:21;;;;;;;19.43;12.00;;;5.70;99.90;;;6.78;100.00;-19957.75;5075379;28;20185;-62
2021/12/18 06:42:49;;;;;;;19.60;12.10;;;5.80;99.90;;;6.84;100.00;-19959.66;5075410;28;20252;-63
2021/12/18 06:45:17;;;;;;;22.63;14.07;;;5.80;99.90;;;6.66;100.00;-19953.50;5075485;28;20228;-63
2021/12/18 06:47:45;;;;;;;25.90;14.57;;;5.80;99.90;;;6.61;100.00;-19951.78;5075092;28;20632;-63
2021/12/18 06:50:14;;;;;;;23.47;13.63;;;5.80;99.90;;;6.48;100.00;-19947.34;5075391;28;20208;-63
2021/12/18 06:52:42;;;;;;;29.53;16.53;;;5.80;99.90;;;6.48;100.00;-19947.34;5075103;28;20287;-62
2021/12/18 06:55:11;;;;;;;28.37;16.37;;;5.80;99.90;;;6.57;100.00;-19950.59;5075002;28;20247;-62
2021/12/18 06:57:39;;;;;;;31.17;17.93;;;5.80;99.90;;;6.57;100.00;-19950.41;5073860;28;20212;-63
2021/12/18 07:00:13;;;;;;;31.60;17.90;;;5.80;99.90;;;6.51;100.00;-19948.53;5074874;28;20193;-62
2021/12/18 07:02:42;;;;;;;31.43;17.77;;;5.80;99.90;;;6.50;100.00;-19948.19;5085455;28;20208;-65
2021/12/18 07:05:12;;;;;;;33.30;18.33;;;5.70;99.90;;;6.47;100.00;-19947.00;5095133;28;20284;-63
2021/12/18 07:07:41;;;;;;;32.33;17.53;;;5.80;99.90;;;6.45;100.00;-19946.31;5095419;28;20200;-63
2021/12/18 07:10:13;;;;;;;32.73;17.97;;;5.70;99.90;;;6.48;100.00;-19947.50;5095129;28;20294;-64
2021/12/18 07:12:42;;;;;;;31.93;17.70;;;5.70;99.90;;;6.43;100.00;-19945.81;5093981;28;20234;-64
2021/12/18 07:15:13;;;;;;;31.10;19.00;;;5.70;99.90;;;6.38;100.00;-19943.94;5095204;28;20283;-63
2021/12/18 07:17:41;;;;;;;42.80;26.90;;;5.80;99.90;;;6.36;100.00;-19943.41;5094502;28;20239;-63
2021/12/18 07:20:12;;;;;;;35.07;22.10;;;5.70;99.90;;;6.40;100.00;-19944.59;5095137;28;20253;-63
2021/12/18 07:22:41;;;;;;;34.23;20.33;;;5.70;99.90;;;6.39;100.00;-19944.44;5094581;28;20220;-63
2021/12/18 07:25:11;;;;;;;36.20;20.90;;;5.70;99.90;;;6.42;100.00;-19945.47;5094872;28;20226;-63
2021/12/18 07:27:40;;;;;;;36.90;23.53;;;5.70;99.90;;;6.37;100.00;-19943.75;5094809;28;20291;-63
2021/12/18 07:30:10;;;;;;;36.23;23.03;;;5.70;99.90;;;6.51;100.00;-19948.38;5094970;28;20295;-63
2021/12/18 07:32:38;;;;;;;31.97;19.33;;;5.70;99.90;;;6.52;100.00;-19948.88;5093956;28;20311;-64
2021/12/18 07:35:08;;;;;;;29.57;18.33;;;5.70;99.90;;;6.37;100.00;-19943.75;5094805;28;20203;-62
2021/12/18 07:37:37;;;;;;;34.23;19.37;;;5.60;99.90;;;6.40;100.00;-19944.59;5094889;28;20190;-63
2021/12/18 07:40:10;;;;;;;30.17;19.07;;;5.60;99.90;;;6.41;100.00;-19945.13;5094690;28;20268;-62
2021/12/18 07:42:38;;;;;;;30.27;18.53;;;5.60;99.90;;;6.55;100.00;-19949.72;5093287;28;20295;-63
2021/12/18 07:45:10;;;;;;;25.60;17.20;;;5.70;99.90;;;6.38;100.00;-19944.09;5094617;28;20299;-63
2021/12/18 07:47:39;;;;;;;29.47;16.90;;;5.70;99.90;;;6.31;100.00;-19941.69;5084474;28;20236;-63
2021/12/18 07:50:12;;;;;;;29.10;16.07;;;5.60;99.90;;;6.39;100.00;-19944.28;5074466;28;20197;-62
2021/12/18 07:52:40;;;;;;;31.03;16.37;;;5.70;99.90;;;6.44;100.00;-19946.16;5074374;28;20283;-63
2021/12/18 07:55:10;;;;;;;27.37;16.83;;;5.60;99.90;;;6.32;100.00;-19941.88;5074344;28;20295;-63
2021/12/18 07:57:38;;;;;;;26.57;16.07;;;5.60;99.90;;;6.37;100.00;-19943.59;5074178;28;20243;-62
2021/12/18 08:00:11;;;;;;;29.30;16.10;;;5.60;99.90;;;6.36;100.00;-19943.41;5074097;28;20204;-61
2021/12/18 08:02:39;;;;;;;26.27;16.13;;;5.60;99.90;;;6.40;100.00;-19944.78;5073566;28;20205;-66
2021/12/18 08:05:09;;;;;;;29.67;17.33;;;5.60;99.90;;;6.66;100.00;-19953.50;5076988;28;20208;-63
2021/12/18 08:07:37;;;;;;;25.47;16.13;;;5.70;99.90;;;6.55;100.00;-19949.72;5094634;28;20239;-63
2021/12/18 08:10:06;;;;;;;26.43;17.07;;;5.70;99.90;;;6.58;100.00;-19950.94;5083775;28;20539;-64
2021/12/18 08:12:36;;;;;;;25.17;15.73;;;5.70;99.90;;;6.51;100.00;-19948.53;5073924;28;20645;-62
2021/12/18 08:15:06;;;;;;;23.77;15.80;;;5.70;99.90;;;6.47;100.00;-19947.19;5073940;28;20204;-63
2021/12/18 08:17:35;;;;;;;26.90;15.33;;;5.70;99.90;;;6.52;100.00;-19948.72;5073336;28;20652;-62
2021/12/18 08:20:05;;;;;;;27.03;14.73;;;5.70;99.90;;;6.55;100.00;-19949.91;5073757;28;20209;-64
2021/12/18 08:22:33;;;;;;;23.13;15.37;;;5.70;99.90;;;6.56;100.00;-19950.25;5073780;28;20220;-63
2021/12/18 08:25:02;;;;;;;27.07;15.80;;;5.80;99.90;;;6.66;100.00;-19953.50;5073652;28;20203;-62
2021/12/18 08:27:31;;;;;;;24.30;15.90;;;5.80;99.90;;;6.70;100.00;-19954.84;5073710;28;20258;-62
2021/12/18 08:30:00;;;;;;;26.23;15.80;;;5.80;99.90;;;6.63;100.00;-19952.63;5073047;28;20215;-62
2021/12/18 08:32:29;;;;;;;24.73;14.30;;;5.80;99.90;;;6.86;100.00;-19960.50;5073034;28;20319;-65
2021/12/18 08:34:57;;;;;;;20.37;12.93;;;5.90;99.90;;;6.76;100.00;-19957.09;5093402;28;20503;-64
2021/12/18 08:37:24;;;;;;;17.03;11.47;;;5.90;99.90;;;6.92;100.00;-19962.38;5093303;28;20201;-61
2021/12/18 08:39:53;;;;;;;16.93;11.13;;;5.90;99.90;;;6.82;100.00;-19959.13;5093284;28;20576;-62
2021/12/18 08:42:21;;;;;;;15.03;10.30;;;6.00;99.90;;;6.80;100.00;-19958.28;5092959;28;20200;-64
2021/12/18 08:44:49;;;;;;;17.27;11.47;;;6.00;99.90;;;7.19;100.00;-19971.78;5092097;28;20200;-63
2021/12/18 08:47:19;;;;;;;15.27;9.83;;;6.10;99.90;;;7.16;100.00;-19970.59;5081249;28;20211;-62
2021/12/18 08:49:47;;;;;;;15.67;10.80;;;6.10;99.90;;;6.96;100.00;-19963.75;5092930;28;20705;-62
2021/12/18 08:52:15;;;;;;;14.63;9.33;;;6.10;99.90;;;6.98;100.00;-19964.59;5092950;28;20188;-64
2021/12/18 08:54:43;;;;;;;13.93;9.37;;;6.10;99.90;;;7.17;100.00;-19970.94;5092815;28;20763;-68
2021/12/18 08:57:11;;;;;;;15.30;10.13;;;6.20;99.90;;;7.01;100.00;-19965.47;5093076;28;20188;-71
2021/12/18 08:59:40;;;;;;;14.60;9.13;;;6.20;99.90;;;6.91;100.00;-19962.22;5090357;28;20219;-70
2021/12/18 09:02:10;;;;;;;14.97;9.57;;;6.10;99.90;;;7.00;100.00;-19965.28;5092303;28;20564;-71
2021/12/18 09:04:40;;;;;;;14.80;9.63;;;6.10;99.90;;;6.95;100.00;-19963.56;5089688;28;20228;-72
2021/12/18 09:07:09;;;;;;;15.23;10.13;;;6.10;99.90;;;7.02;100.00;-19965.97;5091682;28;20226;-71
2021/12/18 09:09:40;;;;;;;13.60;8.73;;;6.10;99.90;;;6.91;100.00;-19962.03;5092812;28;20230;-69
2021/12/18 09:12:11;;;;;;;12.77;8.77;;;6.10;99.90;;;6.93;100.00;-19962.91;5093062;28;20290;-72
2021/12/18 09:14:41;;;;;;;14.43;9.50;;;6.10;99.90;;;7.04;100.00;-19966.66;5092565;28;20307;-72
2021/12/18 09:17:10;;;;;;;13.30;9.33;;;6.10;99.90;;;7.08;100.00;-19967.84;5086814;28;20236;-71
2021/12/18 09:19:39;;;;;;;13.80;9.80;;;6.10;99.90;;;6.96;100.00;-19963.91;5072486;28;20201;-71
2021/12/18 09:22:09;;;;;;;14.43;9.53;;;6.10;99.90;;;7.01;100.00;-19965.63;5072280;28;20206;-71
2021/12/18 09:24:37;;;;;;;15.07;10.10;;;6.10;99.90;;;7.24;100.00;-19973.31;5072328;28;20304;-70
2021/12/18 09:27:09;;;;;;;13.23;9.13;;;6.20;99.90;;;7.09;100.00;-19968.38;5072110;28;20227;-71
2021/12/18 09:29:37;;;;;;;15.27;9.87;;;6.20;99.90;;;7.12;100.00;-19969.22;5072187;28;20201;-71
2021/12/18 09:32:06;;;;;;;13.40;8.87;;;6.20;99.90;;;7.12;100.00;-19969.38;5071914;28;20351;-71
2021/12/18 09:34:34;;;;;;;13.80;9.53;;;6.30;99.90;;;7.26;100.00;-19974.19;5072127;28;20185;-73
2021/12/18 09:37:05;;;;;;;13.00;8.70;;;6.30;99.90;;;7.21;100.00;-19972.28;5072049;28;20771;-72
2021/12/18 09:39:33;;;;;;;13.23;8.77;;;6.30;99.90;;;7.21;100.00;-19972.47;5088858;28;20271;-72
2021/12/18 09:42:01;;;;;;;13.07;8.53;;;6.30;99.90;;;7.41;100.00;-19979.31;5091944;28;20223;-71
2021/12/18 09:44:32;;;;;;;14.17;9.63;;;6.40;99.90;;;7.38;100.00;-19978.28;5092128;28;20269;-74
2021/12/18 09:47:02;;;;;;;13.30;9.30;;;6.40;99.90;;;7.21;100.00;-19972.47;5091938;28;20203;-72
2021/12/18 09:49:32;;;;;;;13.87;8.70;;;6.40;99.90;;;7.35;100.00;-19977.06;5091578;28;20300;-70
2021/12/18 09:52:01;;;;;;;12.73;8.87;;;6.40;99.90;;;7.35;100.00;-19977.25;5091960;28;20287;-71
2021/12/18 09:54:31;;;;;;;9.73;7.27;;;6.40;99.90;;;7.28;100.00;-19974.69;5091358;28;20609;-70
2021/12/18 09:56:59;;;;;;;12.23;8.37;;;6.50;99.90;;;7.32;100.00;-19976.06;5092408;28;20191;-71
2021/12/18 09:59:27;;;;;;;15.37;10.83;;;6.50;99.90;;;7.24;100.00;-19973.50;5091743;28;20196;-71
2021/12/18 10:01:55;;;;;;;18.43;12.57;;;6.50;99.90;;;7.18;100.00;-19971.28;5091717;28;20253;-71
2021/12/18 10:04:28;;;;;;;21.33;12.07;;;6.50;99.90;;;7.25;100.00;-19973.66;5091937;28;20219;-71
2021/12/18 10:06:57;;;;;;;18.23;12.43;;;6.50;99.90;;;7.27;100.00;-19974.34;5091835;28;20545;-71
2021/12/18 10:09:36;;;;;;;20.07;13.37;;;6.50;99.90;;;7.41;100.00;-19979.31;5092631;28;20223;-70
2021/12/18 10:12:15;;;;;;;20.27;13.53;;;6.50;99.90;;;7.29;100.00;-19975.03;5093261;28;20694;-71
2021/12/18 10:14:52;;;;;;;17.20;13.07;;;6.50;99.90;;;7.41;100.00;-19979.13;5075674;28;20199;-70
2021/12/18 10:17:28;;;;;;;21.60;13.93;;;6.50;99.90;;;7.33;100.00;-19976.56;5072836;28;20224;-71
2021/12/18 10:20:19;;;;;;;18.30;14.13;;;6.50;99.90;;;7.47;100.00;-19981.34;5072804;28;20191;-74
2021/12/18 10:22:52;;;;;;;17.47;13.20;;;6.60;99.90;;;7.54;100.00;-19983.41;5074133;28;20538;-72
2021/12/18 10:25:24;;;;;;;20.77;15.47;;;6.60;99.90;;;7.50;100.00;-19982.03;5073189;28;20205;-71
2021/12/18 10:28:03;;;;;;;20.20;14.33;;;6.60;99.90;;;7.41;100.00;-19979.31;5072873;28;20601;-71
2021/12/18 10:30:32;;;;;;;19.60;13.13;;;6.60;99.90;;;7.42;100.00;-19979.63;5072186;28;20272;-71
2021/12/18 10:33:04;;;;;;;20.73;13.93;;;6.60;99.90;;;7.47;100.00;-19981.00;5071980;28;20323;-71
2021/12/18 10:35:46;;;;;;;19.13;13.17;;;6.60;99.90;;;7.40;100.00;-19978.97;5075098;28;20213;-69
2021/12/18 10:38:39;;;;;;;19.43;12.37;;;6.60;99.90;;;7.32;100.00;-19976.22;5092823;28;20184;-71
2021/12/18 10:41:30;;;;;;;19.97;13.90;;;6.60;99.90;;;7.59;100.00;-19985.09;5091878;28;20567;-69
2021/12/18 10:44:06;;;;;;;18.47;12.60;;;6.60;99.90;;;7.39;100.00;-19978.44;5091620;28;20211;-71
2021/12/18 10:46:38;;;;;;;17.93;12.37;;;6.60;99.90;;;7.47;100.00;-19981.34;5092275;28;20273;-71
2021/12/18 10:49:11;;;;;;;18.93;12.27;;;6.60;99.90;;;7.55;100.00;-19983.91;5093150;28;20272;-71
2021/12/18 10:51:42;;;;;;;17.90;11.90;;;6.60;99.90;;;7.60;100.00;-19985.63;5092769;28;20196;-72
2021/12/18 10:54:16;;;;;;;17.17;11.80;;;6.70;99.90;;;7.62;100.00;-19986.31;5093404;28;20220;-71